Aeroporto :
LOGIN :

Iscrizione | Disclaimer

   EN    FR    IT 

 










Sommario :    VFR   VFR Marginale   IFR   IFR Intensivo   IFR Molto Intensivo
Visibilità : 
Base nubi : 
>= 8 km
>= 3000ft
5 / 8 km
1000 / 3000 ft
1500m / 5 km
500 / 1000 ft
800 / 1500m
200 / 500 ft
< 800m
< 200 ft
Simboli :   Temporali  Nebbia  Neve Forte  Precipitazioni Forti  Vento > 20 kt
SIGMETs :   Varie  Temporali  Ghiacco  Turbolenza  Onda orograficha  Ceneri Vulcaniche







- Altitudine del aeroporto : 1568 ft


ETSB - Büchel AB

ULTIMO METAR :
  • 201120Z 25008KT 8000 FEW002 BKN140 05/05 Q1024 BLU BLU

METARs OBSOLETI :
  • 201102Z 25007KT 5000 BR FEW001 SCT002 BKN140 04/04 Q1023 WHT WHT BECMG BLU
  • 201048Z 25007KT 2000 BR SCT001 BKN002 BKN140 03/03 Q1024 AMB AMB BECMG YLO
  • 201041Z 25007KT 1600 R21/0650U BR SCT000 BKN001 03/03 Q1024 RED RED BECMG AMB
  • 201036Z 25007KT 1200 R21/0450N BR BKN000 03/03 Q1024 RED RED BECMG AMB
  • 201020Z 25007KT 0300 R21/0450N FG BKN000 03/02 Q1023 RED RED BECMG AMB
  • 201033Z 25008KT 0600 R21/0450N FG BKN000 03/02 Q1024 RED RED BECMG AMB
  • 200920Z 26006KT 0100 R21/0300N FG BKN000 01/01 Q1023 RED RED BECMG AMB

TAF TAF ETSB
Valido dal 20 a 12 ore il 20 a 21 ore UTC


201108Z 2012/2021 25007KT 5000 BR SCT003 BKN140
BECMG 2012/2014 24008KT 9999 NSW BKN140 BY ETGL
Nessun NOTAM noto per questo aeroporto.



MetMap, La meteo Aeronautica in un colpo d'occhio ! - Copyright ORBIFLY Dicembre 2007 - Disclaimer

ORBIFLY MET'MAP TEAM :

Programmazione e sviluppo : Alexandra Zaïnal
Concezione e sviluppo : Baudouin d'Aumeries
Co-Programmazione e sviluppo : Marc-Olivier Méhu
Supporto tecnico e logistico : Manuel Goepfert
Aiuto per la traduzione : Arnaldo La Scala

Contatto : metmap@orbifly.com




FONTI E CREDITI :

   NOAA